sensor_id;sensor_type;location;lat;lon;timestamp;temperature;humidity
17252;DHT22;8742;51.716;8.790;2023-06-26T00:00:08;21.90;92.70
17252;DHT22;8742;51.716;8.790;2023-06-26T00:02:36;21.90;93.00
17252;DHT22;8742;51.716;8.790;2023-06-26T00:05:04;21.90;93.00
17252;DHT22;8742;51.716;8.790;2023-06-26T00:07:31;21.90;92.90
17252;DHT22;8742;51.716;8.790;2023-06-26T00:09:59;21.80;92.70
17252;DHT22;8742;51.716;8.790;2023-06-26T00:12:26;21.80;93.20
17252;DHT22;8742;51.716;8.790;2023-06-26T00:14:53;21.80;93.10
17252;DHT22;8742;51.716;8.790;2023-06-26T00:17:21;21.80;93.30
17252;DHT22;8742;51.716;8.790;2023-06-26T00:19:48;21.80;93.00
17252;DHT22;8742;51.716;8.790;2023-06-26T00:22:15;21.80;93.30
17252;DHT22;8742;51.716;8.790;2023-06-26T00:24:42;21.80;93.50
17252;DHT22;8742;51.716;8.790;2023-06-26T00:27:10;21.80;93.60
17252;DHT22;8742;51.716;8.790;2023-06-26T00:29:37;21.80;93.50
17252;DHT22;8742;51.716;8.790;2023-06-26T00:32:04;21.80;94.10
17252;DHT22;8742;51.716;8.790;2023-06-26T00:34:32;21.70;93.50
17252;DHT22;8742;51.716;8.790;2023-06-26T00:36:59;21.80;93.70
17252;DHT22;8742;51.716;8.790;2023-06-26T00:39:26;21.70;93.90
17252;DHT22;8742;51.716;8.790;2023-06-26T00:41:53;21.70;93.90
17252;DHT22;8742;51.716;8.790;2023-06-26T00:44:20;21.80;94.40
17252;DHT22;8742;51.716;8.790;2023-06-26T00:46:47;21.70;94.40
17252;DHT22;8742;51.716;8.790;2023-06-26T00:49:14;21.80;94.00
17252;DHT22;8742;51.716;8.790;2023-06-26T00:51:43;21.80;94.40
17252;DHT22;8742;51.716;8.790;2023-06-26T00:54:10;21.80;94.30
17252;DHT22;8742;51.716;8.790;2023-06-26T00:56:37;21.80;94.30
17252;DHT22;8742;51.716;8.790;2023-06-26T00:59:04;21.80;94.70
17252;DHT22;8742;51.716;8.790;2023-06-26T01:01:31;21.80;94.50
17252;DHT22;8742;51.716;8.790;2023-06-26T01:03:57;21.80;94.40
17252;DHT22;8742;51.716;8.790;2023-06-26T01:06:26;21.70;94.40
17252;DHT22;8742;51.716;8.790;2023-06-26T01:08:57;21.70;94.40
17252;DHT22;8742;51.716;8.790;2023-06-26T01:11:24;21.70;95.10
17252;DHT22;8742;51.716;8.790;2023-06-26T01:13:51;21.80;95.00
17252;DHT22;8742;51.716;8.790;2023-06-26T01:16:20;21.80;94.60
17252;DHT22;8742;51.716;8.790;2023-06-26T01:18:47;21.80;94.50
17252;DHT22;8742;51.716;8.790;2023-06-26T01:21:15;21.80;94.90
17252;DHT22;8742;51.716;8.790;2023-06-26T01:23:52;21.80;94.90
17252;DHT22;8742;51.716;8.790;2023-06-26T01:26:27;21.70;95.00
17252;DHT22;8742;51.716;8.790;2023-06-26T01:28:57;21.70;95.50
17252;DHT22;8742;51.716;8.790;2023-06-26T01:31:26;21.70;95.30
17252;DHT22;8742;51.716;8.790;2023-06-26T01:33:54;21.70;95.40
17252;DHT22;8742;51.716;8.790;2023-06-26T01:36:22;21.70;95.70
17252;DHT22;8742;51.716;8.790;2023-06-26T01:38:49;21.70;95.40
17252;DHT22;8742;51.716;8.790;2023-06-26T01:41:16;21.60;95.70
17252;DHT22;8742;51.716;8.790;2023-06-26T01:43:58;21.60;95.70
17252;DHT22;8742;51.716;8.790;2023-06-26T01:46:39;21.60;96.10
17252;DHT22;8742;51.716;8.790;2023-06-26T01:49:11;21.50;96.10
17252;DHT22;8742;51.716;8.790;2023-06-26T01:51:44;21.60;96.80
17252;DHT22;8742;51.716;8.790;2023-06-26T01:54:16;21.60;96.90
17252;DHT22;8742;51.716;8.790;2023-06-26T01:56:45;21.50;96.50
17252;DHT22;8742;51.716;8.790;2023-06-26T01:59:14;21.50;96.40
17252;DHT22;8742;51.716;8.790;2023-06-26T02:01:41;21.50;96.50
17252;DHT22;8742;51.716;8.790;2023-06-26T02:04:08;21.50;96.30
17252;DHT22;8742;51.716;8.790;2023-06-26T02:06:34;21.50;96.40
17252;DHT22;8742;51.716;8.790;2023-06-26T02:09:01;21.50;96.50
17252;DHT22;8742;51.716;8.790;2023-06-26T02:11:29;21.40;96.50
17252;DHT22;8742;51.716;8.790;2023-06-26T02:13:55;21.40;96.70
17252;DHT22;8742;51.716;8.790;2023-06-26T02:16:24;21.40;96.70
17252;DHT22;8742;51.716;8.790;2023-06-26T02:18:51;21.40;97.00
17252;DHT22;8742;51.716;8.790;2023-06-26T02:21:17;21.40;97.00
17252;DHT22;8742;51.716;8.790;2023-06-26T02:23:44;21.40;96.90
17252;DHT22;8742;51.716;8.790;2023-06-26T02:26:11;21.30;96.70
17252;DHT22;8742;51.716;8.790;2023-06-26T02:28:38;21.30;97.00
17252;DHT22;8742;51.716;8.790;2023-06-26T02:31:05;21.30;96.80
17252;DHT22;8742;51.716;8.790;2023-06-26T02:33:33;21.20;97.20
17252;DHT22;8742;51.716;8.790;2023-06-26T02:36:00;21.20;97.20
17252;DHT22;8742;51.716;8.790;2023-06-26T02:38:26;21.20;97.10
17252;DHT22;8742;51.716;8.790;2023-06-26T02:40:53;21.10;97.50
17252;DHT22;8742;51.716;8.790;2023-06-26T02:43:20;21.10;97.30
17252;DHT22;8742;51.716;8.790;2023-06-26T02:45:47;21.10;97.40
17252;DHT22;8742;51.716;8.790;2023-06-26T02:48:14;21.10;97.10
17252;DHT22;8742;51.716;8.790;2023-06-26T02:50:42;21.10;97.10
17252;DHT22;8742;51.716;8.790;2023-06-26T02:53:11;21.00;97.10
17252;DHT22;8742;51.716;8.790;2023-06-26T02:55:38;21.00;97.20
17252;DHT22;8742;51.716;8.790;2023-06-26T02:58:05;21.00;97.20
17252;DHT22;8742;51.716;8.790;2023-06-26T03:00:32;20.90;97.40
17252;DHT22;8742;51.716;8.790;2023-06-26T03:02:58;20.90;97.60
17252;DHT22;8742;51.716;8.790;2023-06-26T03:05:25;21.00;97.90
17252;DHT22;8742;51.716;8.790;2023-06-26T03:07:53;21.00;97.80
17252;DHT22;8742;51.716;8.790;2023-06-26T03:10:20;21.00;97.70
17252;DHT22;8742;51.716;8.790;2023-06-26T03:12:47;21.00;97.70
17252;DHT22;8742;51.716;8.790;2023-06-26T03:15:14;21.00;97.80
17252;DHT22;8742;51.716;8.790;2023-06-26T03:17:41;21.10;98.10
17252;DHT22;8742;51.716;8.790;2023-06-26T03:20:08;21.10;97.60
17252;DHT22;8742;51.716;8.790;2023-06-26T03:22:36;21.10;97.50
17252;DHT22;8742;51.716;8.790;2023-06-26T03:25:05;21.10;97.70
17252;DHT22;8742;51.716;8.790;2023-06-26T03:27:32;21.10;97.50
17252;DHT22;8742;51.716;8.790;2023-06-26T03:29:58;21.10;97.40
17252;DHT22;8742;51.716;8.790;2023-06-26T03:32:25;21.10;97.50
17252;DHT22;8742;51.716;8.790;2023-06-26T03:34:52;21.10;97.80
17252;DHT22;8742;51.716;8.790;2023-06-26T03:37:19;21.10;97.60
17252;DHT22;8742;51.716;8.790;2023-06-26T03:39:46;21.20;97.60
17252;DHT22;8742;51.716;8.790;2023-06-26T03:42:14;21.20;97.80
17252;DHT22;8742;51.716;8.790;2023-06-26T03:44:41;21.20;97.50
17252;DHT22;8742;51.716;8.790;2023-06-26T03:47:08;21.20;97.70
17252;DHT22;8742;51.716;8.790;2023-06-26T03:49:35;21.30;97.50
17252;DHT22;8742;51.716;8.790;2023-06-26T03:52:01;21.30;97.60
17252;DHT22;8742;51.716;8.790;2023-06-26T03:54:28;21.40;97.40
17252;DHT22;8742;51.716;8.790;2023-06-26T03:56:55;21.40;97.40
17252;DHT22;8742;51.716;8.790;2023-06-26T03:59:23;21.40;97.20
17252;DHT22;8742;51.716;8.790;2023-06-26T04:01:50;21.40;97.20
17252;DHT22;8742;51.716;8.790;2023-06-26T04:04:17;21.50;97.20
17252;DHT22;8742;51.716;8.790;2023-06-26T04:06:44;21.50;97.20
17252;DHT22;8742;51.716;8.790;2023-06-26T04:09:11;21.60;97.10
17252;DHT22;8742;51.716;8.790;2023-06-26T04:11:39;21.70;97.00
17252;DHT22;8742;51.716;8.790;2023-06-26T04:14:05;21.70;96.90
17252;DHT22;8742;51.716;8.790;2023-06-26T04:16:34;21.70;96.80
17252;DHT22;8742;51.716;8.790;2023-06-26T04:19:00;21.80;97.30
17252;DHT22;8742;51.716;8.790;2023-06-26T04:21:28;21.90;96.70
17252;DHT22;8742;51.716;8.790;2023-06-26T04:23:55;22.00;96.60
17252;DHT22;8742;51.716;8.790;2023-06-26T04:26:22;22.10;96.50
17252;DHT22;8742;51.716;8.790;2023-06-26T04:28:48;22.20;96.80
17252;DHT22;8742;51.716;8.790;2023-06-26T04:31:15;22.40;96.30
17252;DHT22;8742;51.716;8.790;2023-06-26T04:33:43;22.50;96.30
17252;DHT22;8742;51.716;8.790;2023-06-26T04:36:10;22.60;96.10
17252;DHT22;8742;51.716;8.790;2023-06-26T04:38:37;22.70;96.10
17252;DHT22;8742;51.716;8.790;2023-06-26T04:41:04;22.80;95.70
17252;DHT22;8742;51.716;8.790;2023-06-26T04:43:31;22.90;95.60
17252;DHT22;8742;51.716;8.790;2023-06-26T04:45:58;22.90;95.40
17252;DHT22;8742;51.716;8.790;2023-06-26T04:48:24;23.00;95.40
17252;DHT22;8742;51.716;8.790;2023-06-26T04:50:54;23.00;95.30
17252;DHT22;8742;51.716;8.790;2023-06-26T04:53:21;23.00;95.60
17252;DHT22;8742;51.716;8.790;2023-06-26T04:55:49;23.00;95.40
17252;DHT22;8742;51.716;8.790;2023-06-26T04:58:16;23.00;95.60
17252;DHT22;8742;51.716;8.790;2023-06-26T05:00:42;23.00;95.60
17252;DHT22;8742;51.716;8.790;2023-06-26T05:03:09;22.90;95.60
17252;DHT22;8742;51.716;8.790;2023-06-26T05:05:36;22.90;95.60
17252;DHT22;8742;51.716;8.790;2023-06-26T05:08:18;22.90;95.60
17252;DHT22;8742;51.716;8.790;2023-06-26T05:10:45;22.90;95.50
17252;DHT22;8742;51.716;8.790;2023-06-26T05:13:13;23.00;95.40
17252;DHT22;8742;51.716;8.790;2023-06-26T05:15:43;23.00;95.30
17252;DHT22;8742;51.716;8.790;2023-06-26T05:18:10;23.10;94.90
17252;DHT22;8742;51.716;8.790;2023-06-26T05:20:37;23.20;94.80
17252;DHT22;8742;51.716;8.790;2023-06-26T05:23:05;23.20;94.30
17252;DHT22;8742;51.716;8.790;2023-06-26T05:25:36;23.30;94.20
17252;DHT22;8742;51.716;8.790;2023-06-26T05:28:04;23.30;94.00
17252;DHT22;8742;51.716;8.790;2023-06-26T05:30:32;23.40;94.10
17252;DHT22;8742;51.716;8.790;2023-06-26T05:33:02;23.50;94.00
17252;DHT22;8742;51.716;8.790;2023-06-26T05:35:30;23.50;93.80
17252;DHT22;8742;51.716;8.790;2023-06-26T05:37:58;23.50;93.80
17252;DHT22;8742;51.716;8.790;2023-06-26T05:40:26;23.50;93.90
17252;DHT22;8742;51.716;8.790;2023-06-26T05:42:55;23.50;93.80
17252;DHT22;8742;51.716;8.790;2023-06-26T05:45:22;23.60;93.70
17252;DHT22;8742;51.716;8.790;2023-06-26T05:47:48;23.70;93.70
17252;DHT22;8742;51.716;8.790;2023-06-26T05:50:17;23.70;93.80
17252;DHT22;8742;51.716;8.790;2023-06-26T05:52:45;23.80;93.70
17252;DHT22;8742;51.716;8.790;2023-06-26T05:55:13;23.90;93.60
17252;DHT22;8742;51.716;8.790;2023-06-26T05:57:41;24.00;93.30
17252;DHT22;8742;51.716;8.790;2023-06-26T06:00:10;24.10;92.90
17252;DHT22;8742;51.716;8.790;2023-06-26T06:02:37;24.20;92.90
17252;DHT22;8742;51.716;8.790;2023-06-26T06:05:05;24.40;92.90
17252;DHT22;8742;51.716;8.790;2023-06-26T06:07:32;24.50;92.70
17252;DHT22;8742;51.716;8.790;2023-06-26T06:09:59;24.50;92.80
17252;DHT22;8742;51.716;8.790;2023-06-26T06:12:26;24.70;92.60
17252;DHT22;8742;51.716;8.790;2023-06-26T06:14:53;24.80;92.40
17252;DHT22;8742;51.716;8.790;2023-06-26T06:17:22;24.90;92.20
17252;DHT22;8742;51.716;8.790;2023-06-26T06:19:49;25.00;92.50
17252;DHT22;8742;51.716;8.790;2023-06-26T06:22:16;25.00;92.00
17252;DHT22;8742;51.716;8.790;2023-06-26T06:24:43;25.10;91.70
17252;DHT22;8742;51.716;8.790;2023-06-26T06:27:10;25.20;91.70
17252;DHT22;8742;51.716;8.790;2023-06-26T06:29:37;25.20;92.30
17252;DHT22;8742;51.716;8.790;2023-06-26T06:32:04;25.20;92.40
17252;DHT22;8742;51.716;8.790;2023-06-26T06:34:33;25.30;92.60
17252;DHT22;8742;51.716;8.790;2023-06-26T06:37:00;25.30;92.70
17252;DHT22;8742;51.716;8.790;2023-06-26T06:39:27;25.30;92.60
17252;DHT22;8742;51.716;8.790;2023-06-26T06:41:54;25.30;92.60
17252;DHT22;8742;51.716;8.790;2023-06-26T06:44:21;25.40;92.70
17252;DHT22;8742;51.716;8.790;2023-06-26T06:46:48;25.40;92.20
17252;DHT22;8742;51.716;8.790;2023-06-26T06:49:15;25.40;92.00
17252;DHT22;8742;51.716;8.790;2023-06-26T06:51:43;25.40;92.20
17252;DHT22;8742;51.716;8.790;2023-06-26T06:54:10;25.40;92.60
17252;DHT22;8742;51.716;8.790;2023-06-26T06:56:37;25.40;92.50
17252;DHT22;8742;51.716;8.790;2023-06-26T06:59:06;25.40;92.60
17252;DHT22;8742;51.716;8.790;2023-06-26T07:01:33;25.50;92.60
17252;DHT22;8742;51.716;8.790;2023-06-26T07:04:00;25.50;92.80
17252;DHT22;8742;51.716;8.790;2023-06-26T07:06:29;25.50;93.40
17252;DHT22;8742;51.716;8.790;2023-06-26T07:08:57;25.50;93.30
17252;DHT22;8742;51.716;8.790;2023-06-26T07:11:24;25.50;93.20
17252;DHT22;8742;51.716;8.790;2023-06-26T07:13:51;25.50;93.30
17252;DHT22;8742;51.716;8.790;2023-06-26T07:16:18;25.70;93.40
17252;DHT22;8742;51.716;8.790;2023-06-26T07:18:45;25.70;93.70
17252;DHT22;8742;51.716;8.790;2023-06-26T07:21:12;25.80;94.00
17252;DHT22;8742;51.716;8.790;2023-06-26T07:23:39;25.80;93.90
17252;DHT22;8742;51.716;8.790;2023-06-26T07:26:07;25.90;93.70
17252;DHT22;8742;51.716;8.790;2023-06-26T07:28:34;26.00;93.50
17252;DHT22;8742;51.716;8.790;2023-06-26T07:31:01;26.10;93.60
17252;DHT22;8742;51.716;8.790;2023-06-26T07:33:28;26.10;93.30
17252;DHT22;8742;51.716;8.790;2023-06-26T07:35:55;26.10;92.90
17252;DHT22;8742;51.716;8.790;2023-06-26T07:38:22;26.10;93.10
17252;DHT22;8742;51.716;8.790;2023-06-26T07:40:49;26.10;93.10
17252;DHT22;8742;51.716;8.790;2023-06-26T07:43:18;26.10;93.20
17252;DHT22;8742;51.716;8.790;2023-06-26T07:45:44;26.10;93.30
17252;DHT22;8742;51.716;8.790;2023-06-26T07:48:11;26.10;93.90
17252;DHT22;8742;51.716;8.790;2023-06-26T07:50:38;26.20;94.30
17252;DHT22;8742;51.716;8.790;2023-06-26T07:53:05;26.20;94.10
17252;DHT22;8742;51.716;8.790;2023-06-26T07:55:32;26.40;93.70
17252;DHT22;8742;51.716;8.790;2023-06-26T07:58:02;26.70;93.70
17252;DHT22;8742;51.716;8.790;2023-06-26T08:00:30;27.10;93.80
17252;DHT22;8742;51.716;8.790;2023-06-26T08:02:57;27.60;93.80
17252;DHT22;8742;51.716;8.790;2023-06-26T08:05:24;28.10;93.30
17252;DHT22;8742;51.716;8.790;2023-06-26T08:07:51;28.30;92.50
17252;DHT22;8742;51.716;8.790;2023-06-26T08:10:18;28.20;92.20
17252;DHT22;8742;51.716;8.790;2023-06-26T08:12:45;28.60;92.00
17252;DHT22;8742;51.716;8.790;2023-06-26T08:15:14;28.70;91.50
17252;DHT22;8742;51.716;8.790;2023-06-26T08:17:42;28.50;91.80
17252;DHT22;8742;51.716;8.790;2023-06-26T08:20:11;28.30;92.00
17252;DHT22;8742;51.716;8.790;2023-06-26T08:22:38;28.00;91.40
17252;DHT22;8742;51.716;8.790;2023-06-26T08:25:06;27.60;91.40
17252;DHT22;8742;51.716;8.790;2023-06-26T08:27:32;27.30;91.90
17252;DHT22;8742;51.716;8.790;2023-06-26T08:29:59;27.20;92.40
17252;DHT22;8742;51.716;8.790;2023-06-26T08:32:26;27.30;92.80
17252;DHT22;8742;51.716;8.790;2023-06-26T08:34:55;27.20;92.70
17252;DHT22;8742;51.716;8.790;2023-06-26T08:37:22;26.90;92.80
17252;DHT22;8742;51.716;8.790;2023-06-26T08:39:49;26.60;93.20
17252;DHT22;8742;51.716;8.790;2023-06-26T08:42:16;26.30;93.60
17252;DHT22;8742;51.716;8.790;2023-06-26T08:44:43;26.00;93.90
17252;DHT22;8742;51.716;8.790;2023-06-26T08:47:11;26.10;94.40
17252;DHT22;8742;51.716;8.790;2023-06-26T08:49:46;26.20;94.40
17252;DHT22;8742;51.716;8.790;2023-06-26T08:52:23;26.20;94.30
17252;DHT22;8742;51.716;8.790;2023-06-26T08:54:54;26.10;94.50
17252;DHT22;8742;51.716;8.790;2023-06-26T08:57:23;26.30;95.00
17252;DHT22;8742;51.716;8.790;2023-06-26T08:59:52;26.80;94.90
17252;DHT22;8742;51.716;8.790;2023-06-26T09:02:20;27.50;94.40
17252;DHT22;8742;51.716;8.790;2023-06-26T09:04:48;28.10;94.10
17252;DHT22;8742;51.716;8.790;2023-06-26T09:07:17;28.70;93.20
17252;DHT22;8742;51.716;8.790;2023-06-26T09:09:44;29.10;92.90
17252;DHT22;8742;51.716;8.790;2023-06-26T09:12:11;29.70;93.00
17252;DHT22;8742;51.716;8.790;2023-06-26T09:14:38;29.90;92.30
17252;DHT22;8742;51.716;8.790;2023-06-26T09:17:05;29.70;91.40
17252;DHT22;8742;51.716;8.790;2023-06-26T09:19:32;29.30;91.90
17252;DHT22;8742;51.716;8.790;2023-06-26T09:21:59;29.30;92.30
17252;DHT22;8742;51.716;8.790;2023-06-26T09:24:28;29.20;92.00
17252;DHT22;8742;51.716;8.790;2023-06-26T09:26:55;28.80;91.90
17252;DHT22;8742;51.716;8.790;2023-06-26T09:29:22;28.40;92.00
17252;DHT22;8742;51.716;8.790;2023-06-26T09:31:51;28.00;92.20
17252;DHT22;8742;51.716;8.790;2023-06-26T09:34:18;27.60;92.60
17252;DHT22;8742;51.716;8.790;2023-06-26T09:36:46;27.40;93.20
17252;DHT22;8742;51.716;8.790;2023-06-26T09:39:14;27.20;93.30
17252;DHT22;8742;51.716;8.790;2023-06-26T09:41:43;26.80;93.60
17252;DHT22;8742;51.716;8.790;2023-06-26T09:44:11;26.70;94.10
17252;DHT22;8742;51.716;8.790;2023-06-26T09:46:39;27.20;94.50
17252;DHT22;8742;51.716;8.790;2023-06-26T09:49:07;27.90;93.80
17252;DHT22;8742;51.716;8.790;2023-06-26T09:51:37;28.60;93.40
17252;DHT22;8742;51.716;8.790;2023-06-26T09:54:05;28.80;92.80
17252;DHT22;8742;51.716;8.790;2023-06-26T09:56:33;28.80;92.90
17252;DHT22;8742;51.716;8.790;2023-06-26T09:59:02;28.80;93.10
17252;DHT22;8742;51.716;8.790;2023-06-26T10:01:31;29.00;93.50
17252;DHT22;8742;51.716;8.790;2023-06-26T10:03:58;29.20;92.30
17252;DHT22;8742;51.716;8.790;2023-06-26T10:06:27;29.00;92.50
17252;DHT22;8742;51.716;8.790;2023-06-26T10:08:56;29.00;92.90
17252;DHT22;8742;51.716;8.790;2023-06-26T10:11:26;29.00;92.80
17252;DHT22;8742;51.716;8.790;2023-06-26T10:13:55;28.70;92.40
17252;DHT22;8742;51.716;8.790;2023-06-26T10:16:26;28.30;92.50
17252;DHT22;8742;51.716;8.790;2023-06-26T10:18:58;28.10;92.80
17252;DHT22;8742;51.716;8.790;2023-06-26T10:21:29;27.80;93.00
17252;DHT22;8742;51.716;8.790;2023-06-26T10:23:59;27.60;93.70
17252;DHT22;8742;51.716;8.790;2023-06-26T10:26:28;27.50;93.40
17252;DHT22;8742;51.716;8.790;2023-06-26T10:28:56;27.30;93.20
17252;DHT22;8742;51.716;8.790;2023-06-26T10:31:26;27.20;93.40
17252;DHT22;8742;51.716;8.790;2023-06-26T10:33:55;27.40;93.70
17252;DHT22;8742;51.716;8.790;2023-06-26T10:36:27;27.60;93.70
17252;DHT22;8742;51.716;8.790;2023-06-26T10:38:56;27.60;93.60
17252;DHT22;8742;51.716;8.790;2023-06-26T10:41:24;27.50;93.50
17252;DHT22;8742;51.716;8.790;2023-06-26T10:44:05;27.30;93.70
17252;DHT22;8742;51.716;8.790;2023-06-26T10:46:48;27.30;93.90
17252;DHT22;8742;51.716;8.790;2023-06-26T10:49:17;27.40;94.00
17252;DHT22;8742;51.716;8.790;2023-06-26T10:51:48;27.60;93.70
17252;DHT22;8742;51.716;8.790;2023-06-26T10:54:15;27.90;93.80
17252;DHT22;8742;51.716;8.790;2023-06-26T10:56:44;28.10;93.70
17252;DHT22;8742;51.716;8.790;2023-06-26T10:59:14;28.50;93.30
17252;DHT22;8742;51.716;8.790;2023-06-26T11:01:43;29.00;92.50
17252;DHT22;8742;51.716;8.790;2023-06-26T11:04:12;29.30;91.70
17252;DHT22;8742;51.716;8.790;2023-06-26T11:06:40;29.30;91.00
17252;DHT22;8742;51.716;8.790;2023-06-26T11:09:09;28.90;90.90
17252;DHT22;8742;51.716;8.790;2023-06-26T11:11:59;28.50;91.60
17252;DHT22;8742;51.716;8.790;2023-06-26T11:14:31;28.50;91.40
17252;DHT22;8742;51.716;8.790;2023-06-26T11:17:03;28.50;91.00
17252;DHT22;8742;51.716;8.790;2023-06-26T11:19:30;28.40;91.40
17252;DHT22;8742;51.716;8.790;2023-06-26T11:22:02;28.50;91.20
17252;DHT22;8742;51.716;8.790;2023-06-26T11:24:30;28.60;90.90
17252;DHT22;8742;51.716;8.790;2023-06-26T11:27:02;29.10;90.90
17252;DHT22;8742;51.716;8.790;2023-06-26T11:29:30;29.70;90.80
17252;DHT22;8742;51.716;8.790;2023-06-26T11:32:07;30.00;90.50
17252;DHT22;8742;51.716;8.790;2023-06-26T11:34:34;30.60;89.60
17252;DHT22;8742;51.716;8.790;2023-06-26T11:37:03;31.10;89.40
17252;DHT22;8742;51.716;8.790;2023-06-26T11:39:30;31.60;86.50
17252;DHT22;8742;51.716;8.790;2023-06-26T11:41:58;31.70;85.30
17252;DHT22;8742;51.716;8.790;2023-06-26T11:44:33;31.20;85.00
17252;DHT22;8742;51.716;8.790;2023-06-26T11:47:08;30.50;85.30
17252;DHT22;8742;51.716;8.790;2023-06-26T11:49:38;30.10;85.00
17252;DHT22;8742;51.716;8.790;2023-06-26T11:52:05;30.00;80.40
17252;DHT22;8742;51.716;8.790;2023-06-26T11:54:33;29.40;81.20
17252;DHT22;8742;51.716;8.790;2023-06-26T11:57:00;29.10;84.00
17252;DHT22;8742;51.716;8.790;2023-06-26T11:59:33;29.40;84.60
17252;DHT22;8742;51.716;8.790;2023-06-26T12:02:09;29.60;85.10
17252;DHT22;8742;51.716;8.790;2023-06-26T12:04:37;29.90;85.30
17252;DHT22;8742;51.716;8.790;2023-06-26T12:07:06;30.70;85.70
17252;DHT22;8742;51.716;8.790;2023-06-26T12:09:37;31.50;85.10
17252;DHT22;8742;51.716;8.790;2023-06-26T12:12:07;31.80;82.30
17252;DHT22;8742;51.716;8.790;2023-06-26T12:14:38;31.60;81.80
17252;DHT22;8742;51.716;8.790;2023-06-26T12:17:10;31.20;82.00
17252;DHT22;8742;51.716;8.790;2023-06-26T12:19:39;31.00;83.60
17252;DHT22;8742;51.716;8.790;2023-06-26T12:22:07;31.10;83.10
17252;DHT22;8742;51.716;8.790;2023-06-26T12:24:36;31.10;83.30
17252;DHT22;8742;51.716;8.790;2023-06-26T12:27:08;30.90;82.60
17252;DHT22;8742;51.716;8.790;2023-06-26T12:29:37;31.00;80.70
17252;DHT22;8742;51.716;8.790;2023-06-26T12:32:10;31.00;81.30
17252;DHT22;8742;51.716;8.790;2023-06-26T12:34:39;31.30;80.10
17252;DHT22;8742;51.716;8.790;2023-06-26T12:37:08;31.80;78.90
17252;DHT22;8742;51.716;8.790;2023-06-26T12:39:46;32.20;79.10
17252;DHT22;8742;51.716;8.790;2023-06-26T12:42:15;32.20;78.90
17252;DHT22;8742;51.716;8.790;2023-06-26T12:44:42;32.10;77.80
17252;DHT22;8742;51.716;8.790;2023-06-26T12:47:11;31.90;77.10
17252;DHT22;8742;51.716;8.790;2023-06-26T12:49:41;31.80;75.10
17252;DHT22;8742;51.716;8.790;2023-06-26T12:52:11;31.70;72.10
17252;DHT22;8742;51.716;8.790;2023-06-26T12:54:39;31.10;69.90
17252;DHT22;8742;51.716;8.790;2023-06-26T12:57:07;30.90;71.90
17252;DHT22;8742;51.716;8.790;2023-06-26T12:59:37;31.30;72.80
17252;DHT22;8742;51.716;8.790;2023-06-26T13:02:05;31.90;73.20
17252;DHT22;8742;51.716;8.790;2023-06-26T13:04:35;32.60;70.30
17252;DHT22;8742;51.716;8.790;2023-06-26T13:07:05;32.80;64.80
17252;DHT22;8742;51.716;8.790;2023-06-26T13:09:33;32.60;66.10
17252;DHT22;8742;51.716;8.790;2023-06-26T13:12:03;32.40;66.50
17252;DHT22;8742;51.716;8.790;2023-06-26T13:14:30;32.20;64.80
17252;DHT22;8742;51.716;8.790;2023-06-26T13:16:57;31.90;64.80
17252;DHT22;8742;51.716;8.790;2023-06-26T13:19:24;31.40;67.60
17252;DHT22;8742;51.716;8.790;2023-06-26T13:21:52;31.20;67.50
17252;DHT22;8742;51.716;8.790;2023-06-26T13:24:19;30.70;66.60
17252;DHT22;8742;51.716;8.790;2023-06-26T13:26:46;30.30;68.80
17252;DHT22;8742;51.716;8.790;2023-06-26T13:29:13;29.90;69.60
17252;DHT22;8742;51.716;8.790;2023-06-26T13:31:41;29.70;70.70
17252;DHT22;8742;51.716;8.790;2023-06-26T13:34:08;29.40;70.80
17252;DHT22;8742;51.716;8.790;2023-06-26T13:36:35;29.10;70.00
17252;DHT22;8742;51.716;8.790;2023-06-26T13:39:04;28.70;71.50
17252;DHT22;8742;51.716;8.790;2023-06-26T13:41:32;28.50;72.60
17252;DHT22;8742;51.716;8.790;2023-06-26T13:43:59;28.30;73.90
17252;DHT22;8742;51.716;8.790;2023-06-26T13:46:26;28.50;73.10
17252;DHT22;8742;51.716;8.790;2023-06-26T13:48:53;29.00;73.10
17252;DHT22;8742;51.716;8.790;2023-06-26T13:51:20;29.80;71.90
17252;DHT22;8742;51.716;8.790;2023-06-26T13:53:46;30.00;72.10
17252;DHT22;8742;51.716;8.790;2023-06-26T13:56:15;30.00;71.50
17252;DHT22;8742;51.716;8.790;2023-06-26T13:58:41;30.00;71.40
17252;DHT22;8742;51.716;8.790;2023-06-26T14:01:08;29.90;72.50
17252;DHT22;8742;51.716;8.790;2023-06-26T14:03:35;29.70;72.80
17252;DHT22;8742;51.716;8.790;2023-06-26T14:06:02;29.40;71.90
17252;DHT22;8742;51.716;8.790;2023-06-26T14:08:29;29.00;72.80
17252;DHT22;8742;51.716;8.790;2023-06-26T14:10:56;28.60;73.90
17252;DHT22;8742;51.716;8.790;2023-06-26T14:13:24;28.20;74.50
17252;DHT22;8742;51.716;8.790;2023-06-26T14:15:51;27.90;75.40
17252;DHT22;8742;51.716;8.790;2023-06-26T14:18:18;27.60;75.70
17252;DHT22;8742;51.716;8.790;2023-06-26T14:20:46;27.30;76.00
17252;DHT22;8742;51.716;8.790;2023-06-26T14:23:13;27.10;75.30
17252;DHT22;8742;51.716;8.790;2023-06-26T14:25:40;27.00;75.50
17252;DHT22;8742;51.716;8.790;2023-06-26T14:28:07;27.20;75.10
17252;DHT22;8742;51.716;8.790;2023-06-26T14:30:35;27.50;74.70
17252;DHT22;8742;51.716;8.790;2023-06-26T14:33:02;28.20;72.50
17252;DHT22;8742;51.716;8.790;2023-06-26T14:35:29;29.00;71.80
17252;DHT22;8742;51.716;8.790;2023-06-26T14:37:55;30.20;70.00
17252;DHT22;8742;51.716;8.790;2023-06-26T14:40:22;31.20;68.70
17252;DHT22;8742;51.716;8.790;2023-06-26T14:42:49;32.10;65.90
17252;DHT22;8742;51.716;8.790;2023-06-26T14:45:16;32.40;65.50
17252;DHT22;8742;51.716;8.790;2023-06-26T14:47:44;33.00;63.20
17252;DHT22;8742;51.716;8.790;2023-06-26T14:50:11;32.20;62.50
17252;DHT22;8742;51.716;8.790;2023-06-26T14:52:37;31.30;63.10
17252;DHT22;8742;51.716;8.790;2023-06-26T14:55:05;31.00;62.40
17252;DHT22;8742;51.716;8.790;2023-06-26T14:57:32;31.20;62.00
17252;DHT22;8742;51.716;8.790;2023-06-26T14:59:59;31.20;63.60
17252;DHT22;8742;51.716;8.790;2023-06-26T15:02:26;31.70;60.90
17252;DHT22;8742;51.716;8.790;2023-06-26T15:04:54;32.50;59.90
17252;DHT22;8742;51.716;8.790;2023-06-26T15:07:21;32.70;60.90
17252;DHT22;8742;51.716;8.790;2023-06-26T15:09:48;32.20;61.80
17252;DHT22;8742;51.716;8.790;2023-06-26T15:12:15;31.50;60.70
17252;DHT22;8742;51.716;8.790;2023-06-26T15:14:41;31.60;60.80
17252;DHT22;8742;51.716;8.790;2023-06-26T15:17:08;32.30;58.50
17252;DHT22;8742;51.716;8.790;2023-06-26T15:19:36;32.70;57.00
17252;DHT22;8742;51.716;8.790;2023-06-26T15:22:05;32.90;57.20
17252;DHT22;8742;51.716;8.790;2023-06-26T15:24:32;31.90;58.60
17252;DHT22;8742;51.716;8.790;2023-06-26T15:26:58;30.90;58.70
17252;DHT22;8742;51.716;8.790;2023-06-26T15:29:25;29.90;59.90
17252;DHT22;8742;51.716;8.790;2023-06-26T15:31:52;29.10;60.70
17252;DHT22;8742;51.716;8.790;2023-06-26T15:34:19;28.70;62.20
17252;DHT22;8742;51.716;8.790;2023-06-26T15:36:46;28.70;61.00
17252;DHT22;8742;51.716;8.790;2023-06-26T15:39:15;28.60;61.30
17252;DHT22;8742;51.716;8.790;2023-06-26T15:41:42;28.70;61.70
17252;DHT22;8742;51.716;8.790;2023-06-26T15:44:09;28.60;61.70
17252;DHT22;8742;51.716;8.790;2023-06-26T15:46:36;28.70;61.70
17252;DHT22;8742;51.716;8.790;2023-06-26T15:49:03;28.80;59.80